Babcock, Illinois
Current Conditions -  °F | °C
As of 11:52 AM on Tuesday 21 Oct 2014 (Local Time) from KMLI Reporting Station
Clear Clear  
Wind Chill: 13°   Ceiling: Unl
Heat Index: 13°   Visibility: 10mi
Dew Point:   Wind: 8mph
Humidity: 55%   Direction: 30°NNE
Pressure: 30.19"   Gusts: NA
Location:  41.5228°N, 90.3951°W
Report Text: KMLI 211652Z 03007KT 10SM CLR 13/04 A3019 RMK AO2 SLP226 T01330044
Loading
Personal Weather Stations






























Interactive Weather Map
Tropical Storm Tracking
New forecast layout! Learn more

10-Day Weather Forecast

Advertisements
Track Severe Weather on mobile